createdAt,value
2022-08-20T00:00:09.283Z,14.63
2022-08-20T00:05:13.351Z,10.43
2022-08-20T00:10:18.974Z,11.45
2022-08-20T00:15:26.108Z,19.15
2022-08-20T00:20:36.288Z,14.23
2022-08-20T00:25:44.090Z,16.77
2022-08-20T00:30:48.717Z,16.70
2022-08-20T00:35:54.725Z,18.52
2022-08-20T00:41:00.549Z,14.10
2022-08-20T00:46:07.441Z,25.77
2022-08-20T00:51:16.007Z,26.20
2022-08-20T00:56:21.011Z,25.33
2022-08-20T01:01:24.534Z,22.75
2022-08-20T01:06:28.938Z,21.43
2022-08-20T01:16:42.035Z,18.90
2022-08-20T01:21:49.631Z,20.23
2022-08-20T01:26:57.943Z,16.88
2022-08-20T01:32:02.485Z,19.83
2022-08-20T01:42:14.114Z,23.52
2022-08-20T01:47:21.078Z,22.73
2022-08-20T01:52:32.469Z,22.77
2022-08-20T01:57:38.631Z,22.80
2022-08-20T02:02:42.531Z,21.25
2022-08-20T02:07:46.030Z,19.30
2022-08-20T02:12:51.131Z,20.58
2022-08-20T02:18:16.999Z,24.85
2022-08-20T02:23:20.657Z,25.42
2022-08-20T02:28:26.635Z,23.73
2022-08-20T02:33:30.168Z,22.98
2022-08-20T02:38:36.453Z,20.02
2022-08-20T02:43:41.212Z,21.88
2022-08-20T02:48:44.593Z,22.58
2022-08-20T02:53:48.499Z,18.95
2022-08-20T02:58:54.287Z,25.58
2022-08-20T03:03:59.238Z,21.70
2022-08-20T03:09:06.442Z,21.05
2022-08-20T03:14:11.793Z,22.65
2022-08-20T03:19:15.261Z,19.30
2022-08-20T03:24:18.897Z,22.87
2022-08-20T03:29:23.863Z,18.50
2022-08-20T03:34:27.245Z,18.55
2022-08-20T03:39:31.487Z,19.83
2022-08-20T03:44:37.237Z,22.65
2022-08-20T03:49:41.457Z,21.70
2022-08-20T03:54:46.166Z,28.73
2022-08-20T03:59:55.010Z,29.67
2022-08-20T04:05:02.058Z,28.60
2022-08-20T04:15:17.338Z,31.38
2022-08-20T04:20:26.127Z,26.00
2022-08-20T04:25:36.110Z,24.50
2022-08-20T04:30:44.641Z,28.92
2022-08-20T04:35:52.486Z,21.77
2022-08-20T04:40:58.189Z,19.63
2022-08-20T04:46:09.792Z,18.13
2022-08-20T04:51:15.524Z,16.30
2022-08-20T04:56:19.873Z,18.30
2022-08-20T05:01:26.303Z,12.70
2022-08-20T05:06:32.028Z,14.15
2022-08-20T05:11:37.000Z,15.40
2022-08-20T05:16:42.245Z,14.27
2022-08-20T05:21:45.619Z,13.95
2022-08-20T05:26:49.119Z,11.65
2022-08-20T05:31:54.160Z,13.57
2022-08-20T05:36:57.567Z,8.50
2022-08-20T05:42:00.935Z,15.23
2022-08-20T05:47:06.746Z,11.85
2022-08-20T05:52:10.145Z,12.23
2022-08-20T05:57:14.106Z,12.90
2022-08-20T06:02:36.467Z,11.18
2022-08-20T06:07:39.905Z,11.10
2022-08-20T06:12:45.595Z,10.75
2022-08-20T06:17:58.136Z,14.60
2022-08-20T06:23:02.247Z,9.82
2022-08-20T06:28:06.288Z,12.25
2022-08-20T06:33:11.220Z,15.73
2022-08-20T06:38:15.550Z,14.30
2022-08-20T06:43:18.918Z,13.60
2022-08-20T06:53:26.837Z,14.88
2022-08-20T06:58:36.739Z,10.52
2022-08-20T07:03:55.443Z,12.52
2022-08-20T07:08:59.599Z,10.07
2022-08-20T07:14:05.546Z,11.52
2022-08-20T07:19:10.427Z,10.70
2022-08-20T07:24:13.812Z,10.65
2022-08-20T07:29:21.755Z,10.40
2022-08-20T07:34:27.930Z,14.02
2022-08-20T07:39:32.022Z,9.68
2022-08-20T07:44:37.719Z,8.85
2022-08-20T07:49:43.250Z,8.23
2022-08-20T07:54:47.023Z,8.25
2022-08-20T07:59:50.670Z,12.23
2022-08-20T08:04:55.589Z,8.20
2022-08-20T08:09:59.983Z,9.75
2022-08-20T08:15:04.982Z,8.85
2022-08-20T08:20:12.342Z,7.35
2022-08-20T08:25:20.483Z,10.50
2022-08-20T08:30:24.270Z,8.35
2022-08-20T08:40:35.077Z,8.85
2022-08-20T08:45:48.679Z,8.13
2022-08-20T08:50:57.547Z,9.40
2022-08-20T08:56:02.014Z,7.15
2022-08-20T09:01:52.999Z,10.05
2022-08-20T09:06:40.587Z,10.05
2022-08-20T09:11:50.799Z,13.85
2022-08-20T09:16:55.167Z,7.88
2022-08-20T09:22:00.059Z,12.18
2022-08-20T09:27:03.624Z,10.05
2022-08-20T09:32:09.186Z,10.50
2022-08-20T09:37:15.114Z,6.85
2022-08-20T09:42:22.121Z,9.98
2022-08-20T09:47:25.974Z,8.88
2022-08-20T09:52:38.874Z,11.38
2022-08-20T09:57:44.136Z,9.30
2022-08-20T10:02:47.954Z,14.10
2022-08-20T10:07:53.048Z,8.50
2022-08-20T10:12:56.457Z,21.17
2022-08-20T10:17:59.911Z,13.67
2022-08-20T10:23:05.389Z,11.68
2022-08-20T10:28:08.823Z,13.48
2022-08-20T10:33:12.407Z,12.93
2022-08-20T10:38:17.997Z,12.50
2022-08-20T10:43:21.457Z,15.57
2022-08-20T10:48:25.459Z,11.70
2022-08-20T10:53:30.777Z,12.82
2022-08-20T10:58:39.743Z,13.55
2022-08-20T11:03:45.222Z,11.43
2022-08-20T11:08:51.260Z,12.13
2022-08-20T11:13:56.443Z,10.88
2022-08-20T11:18:59.909Z,12.45
2022-08-20T11:24:05.261Z,10.33
2022-08-20T11:29:09.767Z,10.20
2022-08-20T11:34:13.558Z,12.77
2022-08-20T11:39:20.147Z,12.07
2022-08-20T11:44:23.779Z,15.70
2022-08-20T11:49:27.351Z,13.63
2022-08-20T11:54:32.686Z,10.32
2022-08-20T11:59:37.321Z,13.23
2022-08-20T12:04:41.142Z,10.38
2022-08-20T12:09:50.920Z,8.88
2022-08-20T12:14:56.362Z,13.75
2022-08-20T12:20:03.754Z,9.50
2022-08-20T12:25:10.447Z,10.20
2022-08-20T12:30:17.328Z,7.97
2022-08-20T12:35:21.274Z,7.70
2022-08-20T12:40:32.405Z,8.13
2022-08-20T12:45:38.287Z,12.65
2022-08-20T12:50:45.765Z,7.53
2022-08-20T12:55:50.917Z,7.00
2022-08-20T13:00:54.610Z,4.65
2022-08-20T13:05:58.556Z,7.15
2022-08-20T13:11:04.483Z,8.70
2022-08-20T13:16:08.353Z,7.68
2022-08-20T13:21:11.767Z,5.85
2022-08-20T13:26:16.782Z,6.77
2022-08-20T13:31:20.324Z,5.60
2022-08-20T13:36:26.056Z,6.22
2022-08-20T13:41:31.088Z,5.35
2022-08-20T13:46:34.528Z,6.35
2022-08-20T13:51:38.090Z,7.97
2022-08-20T13:56:42.915Z,6.75
2022-08-20T14:01:47.387Z,7.25
2022-08-20T14:06:50.937Z,19.25
2022-08-20T14:11:56.042Z,7.53
2022-08-20T14:16:59.407Z,9.73
2022-08-20T14:22:02.927Z,9.50
2022-08-20T14:27:08.944Z,16.30
2022-08-20T14:32:13.413Z,13.85
2022-08-20T14:37:19.279Z,11.25
2022-08-20T14:42:24.715Z,14.80
2022-08-20T14:47:30.477Z,12.30
2022-08-20T14:52:36.695Z,12.55
2022-08-20T14:57:42.391Z,14.20
2022-08-20T15:02:46.648Z,12.05
2022-08-20T15:07:54.119Z,12.00
2022-08-20T15:12:59.771Z,13.20
2022-08-20T15:18:03.727Z,8.27
2022-08-20T15:23:07.745Z,10.00
2022-08-20T15:28:12.721Z,8.85
2022-08-20T15:33:16.131Z,9.05
2022-08-20T15:38:19.606Z,10.00
2022-08-20T15:43:24.522Z,11.15
2022-08-20T15:48:38.925Z,10.27
2022-08-20T15:53:54.790Z,16.15
2022-08-20T15:59:14.357Z,9.15
2022-08-20T16:04:33.680Z,8.57
2022-08-20T16:09:50.072Z,11.57
2022-08-20T16:15:00.800Z,9.82
2022-08-20T16:20:13.776Z,10.57
2022-08-20T16:25:24.212Z,12.60
2022-08-20T16:30:40.185Z,12.77
2022-08-20T16:35:52.211Z,13.15
2022-08-20T16:41:01.098Z,7.75
2022-08-20T16:46:13.725Z,11.25
2022-08-20T16:51:22.389Z,12.07
2022-08-20T16:56:34.535Z,14.23
2022-08-20T17:01:40.690Z,11.55
2022-08-20T17:06:48.321Z,8.75
2022-08-20T17:11:54.521Z,11.45
2022-08-20T17:16:59.722Z,8.05
2022-08-20T17:22:10.717Z,7.95
2022-08-20T17:27:17.192Z,12.75
2022-08-20T17:32:26.191Z,12.23
2022-08-20T17:37:34.076Z,11.23
2022-08-20T17:42:48.571Z,11.68
2022-08-20T17:53:02.363Z,13.05
2022-08-20T17:58:12.438Z,8.55
2022-08-20T18:03:24.501Z,9.70
2022-08-20T18:08:39.013Z,8.88
2022-08-20T18:14:27.361Z,9.32
2022-08-20T18:19:58.429Z,9.77
2022-08-20T18:25:07.837Z,7.85
2022-08-20T18:30:17.950Z,10.50
2022-08-20T18:35:33.345Z,13.07
2022-08-20T18:40:38.867Z,8.85
2022-08-20T18:45:42.870Z,10.20
2022-08-20T18:50:51.000Z,8.55
2022-08-20T18:56:02.737Z,9.48
2022-08-20T19:01:14.882Z,8.93
2022-08-20T19:06:31.963Z,9.60
2022-08-20T19:12:04.997Z,10.55
2022-08-20T19:17:12.629Z,9.68
2022-08-20T19:22:22.070Z,9.05
2022-08-20T19:27:26.866Z,12.52
2022-08-20T19:32:32.722Z,13.75
2022-08-20T19:37:51.266Z,9.35
2022-08-20T19:42:55.730Z,7.00
2022-08-20T19:48:15.910Z,10.43
2022-08-20T19:53:30.816Z,10.95
2022-08-20T19:58:36.750Z,12.73
2022-08-20T20:03:40.278Z,8.90
2022-08-20T20:08:51.422Z,11.13
2022-08-20T20:13:54.823Z,7.65
2022-08-20T20:19:22.635Z,11.73
2022-08-20T20:24:26.301Z,9.45
2022-08-20T20:29:37.397Z,7.18
2022-08-20T20:34:55.597Z,8.95
2022-08-20T20:40:12.390Z,9.90
2022-08-20T20:45:22.867Z,11.35
2022-08-20T20:50:32.695Z,10.83
2022-08-20T20:55:40.002Z,9.48
2022-08-20T21:00:43.383Z,7.80
2022-08-20T21:05:47.058Z,10.43
2022-08-20T21:10:51.908Z,13.10
2022-08-20T21:15:55.390Z,8.88
2022-08-20T21:20:58.850Z,8.73
2022-08-20T21:26:04.913Z,10.37
2022-08-20T21:31:08.427Z,8.82
2022-08-20T21:36:11.834Z,9.63
2022-08-20T21:41:16.791Z,12.37
2022-08-20T21:46:24.940Z,10.70
2022-08-20T21:51:28.569Z,12.32
2022-08-20T21:56:33.965Z,13.03
2022-08-20T22:01:38.330Z,11.20
2022-08-20T22:11:49.572Z,13.73
2022-08-20T22:16:56.921Z,15.55
2022-08-20T22:22:00.369Z,10.40
2022-08-20T22:27:05.686Z,10.93
2022-08-20T22:32:09.204Z,13.10
2022-08-20T22:37:14.721Z,13.73
2022-08-20T22:42:19.536Z,18.55
2022-08-20T22:47:27.846Z,18.90
2022-08-20T22:52:32.989Z,19.08
2022-08-20T22:57:38.170Z,16.40
2022-08-20T23:02:43.406Z,21.95
2022-08-20T23:07:49.611Z,21.88
2022-08-20T23:12:58.889Z,25.52
2022-08-20T23:18:06.053Z,27.50
2022-08-20T23:23:09.555Z,32.10
2022-08-20T23:28:14.423Z,32.43
2022-08-20T23:33:18.106Z,35.03
2022-08-20T23:38:22.445Z,36.57
2022-08-20T23:43:27.253Z,39.00
2022-08-20T23:48:30.688Z,39.67
2022-08-20T23:53:34.070Z,38.22
2022-08-20T23:58:39.563Z,35.00
